Avon, CO (81620)

8:32 AM MDT on July 23, 2016 (GMT -0600)
Beaver Creek | | Change Station

Elev 8156 ft 39.61 °N, 106.52 °W | Updated 41 seconds ago

Clear
Clear
58.6 °F
Feels Like 58.6 °F
N
2.2
Wind Variable Wind from NNE

Today
High -- | Low -- °F
--% Chance of Precip.
Yesterday
High -- | Low -- °F
Precip. -- in
Pressure 30.36 in
Visibility 10.0 miles
Clouds Clear
Dew Point 48 °F
Humidity 69%
Rainfall 0.00 in
Snow Depth Not available.
5:57 AM 8:26 PM
Waning Gibbous, 85% visible
METAR KEGE 231350Z 00000KT 10SM CLR 14/09 A3036
Pressure 30.36 in
Visibility 10.0 miles
Clouds Clear
Dew Point 48 °F
Humidity 69%
Rainfall 0.00 in
Snow Depth Not available.
5:57 AM 8:26 PM
Waning Gibbous, 85% visible
METAR KEGE 231350Z 00000KT 10SM CLR 14/09 A3036

10-Day Weather Forecast

Almanac

Astronomy

Jul. 23, 2016 Rise Set
Actual Time
Civil Twilight
Nautical Twilight
Astronomical Twilight
Moon
Length of Visible Light
Length of Day
Tomorrow will be .
, % of the Moon is Illuminated

Today's Extremes

State Highs State Lows

Community

WunderPhotos

Upload Photos

1,926,825 photos uploaded!

WunderBlog® & News

Nearby

Air Quality

  Air Quality AQ Index Pollutant
Not available.

Snow Depth

Station Depth Elevation

Earthquake Activity

City Distance Mag. Time & Date
Minimum magnitude displayed is 2.5.

Coastal Water Temperatures

Place Temperature

Stations

Nearby Weather Stations

Station Location Temp. Windchill Dew Point Humidity Wind Precip. Elev Updated Type
                   

Watches & Warnings

There are currently no watches in effect.